createdAt,value
2022-10-10T00:00:49.102Z,101336.75
2022-10-10T00:03:17.226Z,101339.44
2022-10-10T00:05:44.146Z,101326.97
2022-10-10T00:08:11.118Z,101336.31
2022-10-10T00:10:37.979Z,101332.69
2022-10-10T00:13:06.237Z,101325.69
2022-10-10T00:15:32.946Z,101328.47
2022-10-10T00:17:59.529Z,101326.97
2022-10-10T00:20:26.053Z,101329.75
2022-10-10T00:22:53.002Z,101328.16
2022-10-10T00:25:19.971Z,101328.47
2022-10-10T00:27:46.534Z,101319.78
2022-10-10T00:30:13.501Z,101327.28
2022-10-10T00:32:40.042Z,101324.84
2022-10-10T00:35:07.054Z,101308.38
2022-10-10T00:37:33.575Z,101316.34
2022-10-10T00:40:00.128Z,101310.41
2022-10-10T00:42:26.679Z,101313.34
2022-10-10T00:45:21.433Z,101315.34
2022-10-10T00:47:50.622Z,101313.84
2022-10-10T00:50:21.262Z,101306.88
2022-10-10T00:52:48.147Z,101302.47
2022-10-10T00:55:15.415Z,101300.72
2022-10-10T00:57:42.447Z,101307.38
2022-10-10T01:00:09.805Z,101307.19
2022-10-10T01:02:36.891Z,101305.34
2022-10-10T01:05:04.234Z,101298.16
2022-10-10T01:07:32.042Z,101292.56
2022-10-10T01:10:07.856Z,101297.09
2022-10-10T01:12:43.171Z,101299.13
2022-10-10T01:15:32.424Z,101286.88
2022-10-10T01:18:10.632Z,101286.78
2022-10-10T01:20:40.110Z,101292.13
2022-10-10T01:23:28.355Z,101292.44
2022-10-10T01:26:12.811Z,101294.38
2022-10-10T01:28:50.494Z,101295.44
2022-10-10T01:31:22.721Z,101286.53
2022-10-10T01:34:09.598Z,101286.53
2022-10-10T01:36:51.823Z,101281.38
2022-10-10T01:39:34.785Z,101286.00
2022-10-10T01:42:33.390Z,101281.78
2022-10-10T01:44:59.935Z,101273.28
2022-10-10T01:47:26.458Z,101268.97
2022-10-10T01:49:58.311Z,101272.97
2022-10-10T01:52:43.563Z,101275.28
2022-10-10T01:55:43.623Z,101274.53
2022-10-10T01:58:39.943Z,101278.94
2022-10-10T02:01:18.417Z,101284.53
2022-10-10T02:03:51.305Z,101289.34
2022-10-10T02:06:25.715Z,101282.25
2022-10-10T02:08:58.624Z,101284.06
2022-10-10T02:11:27.324Z,101275.28
2022-10-10T02:14:03.149Z,101283.31
2022-10-10T02:16:38.035Z,101280.66
2022-10-10T02:19:09.911Z,101278.69
2022-10-10T02:21:38.671Z,101275.56
2022-10-10T02:24:08.037Z,101271.94
2022-10-10T02:26:36.612Z,101276.63
2022-10-10T02:29:16.731Z,101272.13
2022-10-10T02:31:54.806Z,101282.00
2022-10-10T02:34:32.329Z,101282.22
2022-10-10T02:37:03.063Z,101283.38
2022-10-10T02:39:33.987Z,101289.75
2022-10-10T02:42:00.555Z,101285.47
2022-10-10T02:44:27.755Z,101280.09
2022-10-10T02:46:54.432Z,101284.53
2022-10-10T02:49:27.571Z,101281.16
2022-10-10T02:51:54.308Z,101280.31
2022-10-10T02:54:20.827Z,101285.78
2022-10-10T02:56:47.398Z,101279.44
2022-10-10T02:59:13.912Z,101284.81
2022-10-10T03:01:40.763Z,101278.69
2022-10-10T03:04:07.270Z,101272.56
2022-10-10T03:06:33.835Z,101270.09
2022-10-10T03:09:00.357Z,101265.88
2022-10-10T03:11:26.921Z,101275.53
2022-10-10T03:13:53.407Z,101272.09
2022-10-10T03:16:19.898Z,101273.47
2022-10-10T03:18:46.685Z,101271.34
2022-10-10T03:21:13.211Z,101272.50
2022-10-10T03:23:39.706Z,101274.31
2022-10-10T03:26:06.533Z,101267.47
2022-10-10T03:28:33.262Z,101267.25
2022-10-10T03:30:59.949Z,101266.38
2022-10-10T03:33:26.450Z,101265.63
2022-10-10T03:35:52.952Z,101269.03
2022-10-10T03:38:19.619Z,101276.34
2022-10-10T03:40:46.426Z,101268.50
2022-10-10T03:43:14.044Z,101264.09
2022-10-10T03:45:45.851Z,101275.69
2022-10-10T03:48:12.414Z,101270.13
2022-10-10T03:50:39.047Z,101268.59
2022-10-10T03:53:06.024Z,101261.63
2022-10-10T03:55:32.694Z,101266.03
2022-10-10T03:57:59.234Z,101267.16
2022-10-10T04:00:25.807Z,101263.72
2022-10-10T04:02:53.725Z,101258.47
2022-10-10T04:05:20.559Z,101253.00
2022-10-10T04:07:47.066Z,101264.47
2022-10-10T04:10:13.574Z,101260.19
2022-10-10T04:12:40.079Z,101266.22
2022-10-10T04:15:06.979Z,101262.69
2022-10-10T04:17:33.489Z,101257.31
2022-10-10T04:19:59.967Z,101263.66
2022-10-10T04:22:26.508Z,101259.34
2022-10-10T04:24:53.011Z,101255.03
2022-10-10T04:27:19.534Z,101258.78
2022-10-10T04:29:46.087Z,101256.28
2022-10-10T04:32:12.585Z,101257.06
2022-10-10T04:34:39.081Z,101266.91
2022-10-10T04:37:05.583Z,101257.16
2022-10-10T04:39:32.082Z,101252.75
2022-10-10T04:41:58.591Z,101265.09
2022-10-10T04:44:26.343Z,101269.59
2022-10-10T04:46:52.856Z,101266.06
2022-10-10T04:49:19.420Z,101267.13
2022-10-10T04:51:46.093Z,101260.88
2022-10-10T04:54:13.286Z,101265.28
2022-10-10T04:56:42.477Z,101271.50
2022-10-10T04:59:10.104Z,101269.88
2022-10-10T05:01:36.790Z,101267.50
2022-10-10T05:04:03.871Z,101285.50
2022-10-10T05:06:30.539Z,101270.06
2022-10-10T05:08:57.089Z,101269.13
2022-10-10T05:11:23.633Z,101267.13
2022-10-10T05:13:50.738Z,101264.44
2022-10-10T05:16:17.319Z,101269.41
2022-10-10T05:18:44.069Z,101270.25
2022-10-10T05:21:11.956Z,101263.72
2022-10-10T05:23:38.700Z,101266.09
2022-10-10T05:26:05.645Z,101259.91
2022-10-10T05:28:35.264Z,101269.34
2022-10-10T05:31:03.395Z,101274.31
2022-10-10T05:33:29.969Z,101269.72
2022-10-10T05:36:10.733Z,101272.19
2022-10-10T05:38:38.591Z,101275.25
2022-10-10T05:41:05.800Z,101279.34
2022-10-10T05:43:32.377Z,101272.81
2022-10-10T05:45:58.865Z,101291.22
2022-10-10T05:48:25.346Z,101279.31
2022-10-10T05:50:55.437Z,101280.84
2022-10-10T05:53:23.645Z,101276.91
2022-10-10T05:55:50.440Z,101284.63
2022-10-10T05:58:16.995Z,101284.03
2022-10-10T06:00:45.629Z,101284.44
2022-10-10T06:03:15.568Z,101282.13
2022-10-10T06:05:46.136Z,101289.53
2022-10-10T06:08:12.924Z,101289.09
2022-10-10T06:10:45.169Z,101290.53
2022-10-10T06:13:13.855Z,101286.53
2022-10-10T06:15:41.196Z,101281.38
2022-10-10T06:18:08.390Z,101280.84
2022-10-10T06:20:39.527Z,101282.03
2022-10-10T06:23:07.605Z,101279.78
2022-10-10T06:25:40.504Z,101273.88
2022-10-10T06:28:08.157Z,101273.19
2022-10-10T06:30:35.208Z,101274.16
2022-10-10T06:33:02.039Z,101271.31
2022-10-10T06:35:28.671Z,101285.56
2022-10-10T06:37:55.183Z,101276.09
2022-10-10T06:40:21.699Z,101275.63
2022-10-10T06:42:48.327Z,101278.63
2022-10-10T06:45:15.024Z,101271.38
2022-10-10T06:47:42.074Z,101268.09
2022-10-10T06:50:08.910Z,101279.03
2022-10-10T06:52:35.560Z,101278.34
2022-10-10T06:55:02.062Z,101279.13
2022-10-10T06:57:29.099Z,101283.69
2022-10-10T06:59:55.597Z,101283.09
2022-10-10T07:02:23.254Z,101274.66
2022-10-10T07:04:49.980Z,101278.69
2022-10-10T07:07:16.757Z,101280.91
2022-10-10T07:09:43.266Z,101271.13
2022-10-10T07:12:12.361Z,101271.28
2022-10-10T07:14:38.836Z,101268.84
2022-10-10T07:17:05.395Z,101269.06
2022-10-10T07:19:31.971Z,101280.84
2022-10-10T07:21:58.474Z,101280.69
2022-10-10T07:24:24.967Z,101273.09
2022-10-10T07:27:02.413Z,101271.19
2022-10-10T07:29:31.633Z,101272.38
2022-10-10T07:31:58.167Z,101268.06
2022-10-10T07:34:24.950Z,101272.69
2022-10-10T07:36:51.515Z,101275.88
2022-10-10T07:39:22.353Z,101273.53
2022-10-10T07:41:50.174Z,101274.72
2022-10-10T07:44:17.004Z,101274.69
2022-10-10T07:46:43.819Z,101262.25
2022-10-10T07:49:10.551Z,101263.19
2022-10-10T07:51:38.010Z,101267.78
2022-10-10T07:54:05.218Z,101269.00
2022-10-10T07:56:31.941Z,101268.66
2022-10-10T07:58:59.144Z,101265.31
2022-10-10T08:01:25.690Z,101269.63
2022-10-10T08:03:52.247Z,101262.44
2022-10-10T08:06:18.794Z,101266.34
2022-10-10T08:08:51.207Z,101265.13
2022-10-10T08:11:20.210Z,101265.03
2022-10-10T08:13:46.705Z,101267.66
2022-10-10T08:16:13.390Z,101260.13
2022-10-10T08:18:40.026Z,101253.59
2022-10-10T08:21:09.021Z,101248.94
2022-10-10T08:23:36.212Z,101246.50
2022-10-10T08:26:07.160Z,101237.97
2022-10-10T08:28:34.439Z,101251.38
2022-10-10T08:31:08.372Z,101246.41
2022-10-10T08:33:35.745Z,101249.81
2022-10-10T08:36:08.121Z,101246.78
2022-10-10T08:38:35.839Z,101240.19
2022-10-10T08:41:18.411Z,101236.31
2022-10-10T08:43:51.357Z,101241.72
2022-10-10T08:46:23.691Z,101242.94
2022-10-10T08:48:52.495Z,101239.19
2022-10-10T08:51:28.781Z,101226.81
2022-10-10T08:53:58.991Z,101220.72
2022-10-10T08:56:32.961Z,101219.22
2022-10-10T08:59:14.618Z,101219.00
2022-10-10T09:02:18.348Z,101217.44
2022-10-10T09:04:30.449Z,101210.75
2022-10-10T09:07:29.212Z,101213.44
2022-10-10T09:10:18.768Z,101211.72
2022-10-10T09:13:21.065Z,101217.06
2022-10-10T09:16:01.780Z,101211.53
2022-10-10T09:18:37.518Z,101205.03
2022-10-10T09:21:08.889Z,101209.19
2022-10-10T09:23:43.402Z,101210.28
2022-10-10T09:26:13.831Z,101207.13
2022-10-10T09:28:55.395Z,101197.72
2022-10-10T09:31:31.273Z,101196.75
2022-10-10T09:34:04.963Z,101201.28
2022-10-10T09:36:35.666Z,101204.72
2022-10-10T09:39:14.083Z,101194.84
2022-10-10T09:41:51.358Z,101198.41
2022-10-10T09:44:21.376Z,101196.84
2022-10-10T09:46:48.214Z,101198.72
2022-10-10T09:49:16.915Z,101188.09
2022-10-10T09:51:44.911Z,101195.38
2022-10-10T09:54:14.165Z,101193.56
2022-10-10T09:56:45.036Z,101196.50
2022-10-10T09:59:40.839Z,101187.56
2022-10-10T10:02:27.987Z,101187.44
2022-10-10T10:04:55.141Z,101182.38
2022-10-10T10:07:29.027Z,101179.63
2022-10-10T10:10:01.089Z,101184.34
2022-10-10T10:12:30.466Z,101173.69
2022-10-10T10:15:05.341Z,101180.56
2022-10-10T10:17:32.483Z,101177.28
2022-10-10T10:19:59.014Z,101173.03
2022-10-10T10:22:38.270Z,101175.97
2022-10-10T10:25:31.979Z,101169.25
2022-10-10T10:28:10.579Z,101171.91
2022-10-10T10:30:39.246Z,101168.22
2022-10-10T10:33:24.682Z,101156.38
2022-10-10T10:36:28.975Z,101155.78
2022-10-10T10:39:06.131Z,101152.75
2022-10-10T10:41:38.729Z,101143.94
2022-10-10T10:44:20.408Z,101135.00
2022-10-10T10:47:01.144Z,101133.50
2022-10-10T10:49:37.092Z,101134.00
2022-10-10T10:52:46.880Z,101131.94
2022-10-10T10:55:19.400Z,101126.16
2022-10-10T10:58:37.285Z,101123.25
2022-10-10T11:01:28.797Z,101124.13
2022-10-10T11:05:22.784Z,101121.50
2022-10-10T11:07:19.999Z,101122.88
2022-10-10T11:09:55.561Z,101117.75
2022-10-10T11:12:50.126Z,101107.50
2022-10-10T11:15:30.762Z,101114.31
2022-10-10T11:18:15.839Z,101116.09
2022-10-10T11:20:52.396Z,101113.84
2022-10-10T11:23:42.244Z,101105.44
2022-10-10T11:26:30.068Z,101105.25
2022-10-10T11:29:09.530Z,101101.44
2022-10-10T11:31:52.839Z,101094.97
2022-10-10T11:34:25.072Z,101082.69
2022-10-10T11:36:56.582Z,101082.78
2022-10-10T11:39:56.341Z,101079.91
2022-10-10T11:42:27.121Z,101074.72
2022-10-10T11:45:00.043Z,101071.16
2022-10-10T11:47:54.391Z,101063.59
2022-10-10T11:50:28.934Z,101069.97
2022-10-10T11:53:25.458Z,101066.88
2022-10-10T11:55:57.281Z,101070.50
2022-10-10T11:58:33.473Z,101063.47
2022-10-10T12:01:06.623Z,101068.16
2022-10-10T12:03:33.045Z,101065.66
2022-10-10T12:06:06.031Z,101056.03
2022-10-10T12:08:46.026Z,101053.19
2022-10-10T12:11:22.603Z,101049.56
2022-10-10T12:14:17.251Z,101038.41
2022-10-10T12:16:44.313Z,101040.75
2022-10-10T12:19:22.206Z,101044.34
2022-10-10T12:22:05.421Z,101036.22
2022-10-10T12:24:42.320Z,101034.53
2022-10-10T12:27:25.559Z,101025.63
2022-10-10T12:29:54.850Z,101021.97
2022-10-10T12:32:27.566Z,101030.28
2022-10-10T12:34:53.989Z,101033.88
2022-10-10T12:37:30.756Z,101025.31
2022-10-10T12:40:00.879Z,101021.50
2022-10-10T12:42:30.659Z,101020.44
2022-10-10T12:44:57.317Z,101019.09
2022-10-10T12:47:46.315Z,101026.31
2022-10-10T12:50:41.622Z,101025.28
2022-10-10T12:53:14.182Z,101031.88
2022-10-10T12:55:44.689Z,101021.84
2022-10-10T12:58:27.178Z,101025.44
2022-10-10T13:00:58.072Z,101022.66
2022-10-10T13:03:24.511Z,101017.75
2022-10-10T13:05:51.602Z,101019.72
2022-10-10T13:08:23.895Z,101014.09
2022-10-10T13:11:04.340Z,101010.41
2022-10-10T13:13:31.829Z,100994.00
2022-10-10T13:16:05.493Z,101003.31
2022-10-10T13:18:48.312Z,100999.53
2022-10-10T13:21:18.183Z,101003.88
2022-10-10T13:26:38.762Z,100999.38
2022-10-10T13:29:15.608Z,100997.22
2022-10-10T13:31:43.367Z,101002.78
2022-10-10T13:34:14.459Z,101003.50
2022-10-10T13:36:41.246Z,100995.78
2022-10-10T13:39:15.360Z,100993.31
2022-10-10T13:41:45.699Z,100997.13
2022-10-10T13:44:21.033Z,100989.56
2022-10-10T13:46:47.594Z,100996.13
2022-10-10T13:49:26.330Z,100982.41
2022-10-10T13:52:20.654Z,100979.00
2022-10-10T13:54:47.762Z,100977.78
2022-10-10T13:57:24.338Z,100974.34
2022-10-10T14:00:00.701Z,100977.31
2022-10-10T14:02:32.505Z,100982.59
2022-10-10T14:05:03.844Z,100980.16
2022-10-10T14:07:31.130Z,100990.69
2022-10-10T14:10:01.673Z,100984.72
2022-10-10T14:12:34.019Z,100982.56
2022-10-10T14:15:01.603Z,100970.41
2022-10-10T14:17:29.325Z,100964.16
2022-10-10T14:19:56.425Z,100970.22
2022-10-10T14:22:23.542Z,100952.81
2022-10-10T14:24:50.474Z,100963.88
2022-10-10T14:27:16.905Z,100957.69
2022-10-10T14:29:43.463Z,100955.28
2022-10-10T14:32:11.709Z,100955.72
2022-10-10T14:34:38.571Z,100961.69
2022-10-10T14:37:05.541Z,100953.19
2022-10-10T14:39:34.860Z,100950.25
2022-10-10T14:42:02.213Z,100955.78
2022-10-10T14:44:28.741Z,100945.16
2022-10-10T14:46:55.233Z,100942.81
2022-10-10T14:49:21.919Z,100948.84
2022-10-10T14:51:48.476Z,100949.09
2022-10-10T14:54:15.378Z,100946.69
2022-10-10T14:57:09.132Z,100946.53
2022-10-10T14:59:47.167Z,100951.25
2022-10-10T15:02:20.236Z,100952.50
2022-10-10T15:04:46.811Z,100946.75
2022-10-10T15:07:14.741Z,100945.88
2022-10-10T15:09:57.697Z,100942.50
2022-10-10T15:12:30.753Z,100938.38
2022-10-10T15:14:57.330Z,100940.63
2022-10-10T15:17:25.530Z,100938.94
2022-10-10T15:19:52.223Z,100948.03
2022-10-10T15:22:19.049Z,100943.53
2022-10-10T15:24:45.679Z,100945.72
2022-10-10T15:27:12.207Z,100939.09
2022-10-10T15:29:39.542Z,100943.09
2022-10-10T15:32:06.638Z,100947.16
2022-10-10T15:34:33.328Z,100939.19
2022-10-10T15:36:59.866Z,100944.69
2022-10-10T15:39:26.525Z,100946.22
2022-10-10T15:41:53.033Z,100957.66
2022-10-10T15:44:19.794Z,100948.44
2022-10-10T15:46:46.448Z,100945.97
2022-10-10T15:49:14.504Z,100941.38
2022-10-10T15:51:47.908Z,100936.13
2022-10-10T15:54:14.975Z,100942.25
2022-10-10T15:56:42.079Z,100947.56
2022-10-10T15:59:09.559Z,100941.44
2022-10-10T16:01:36.115Z,100941.94
2022-10-10T16:04:04.846Z,100941.75
2022-10-10T16:06:31.330Z,100941.22
2022-10-10T16:09:16.387Z,100931.53
2022-10-10T16:11:44.311Z,100934.06
2022-10-10T16:14:11.259Z,100932.13
2022-10-10T16:16:37.761Z,100941.59
2022-10-10T16:19:04.330Z,100943.59
2022-10-10T16:21:33.434Z,100938.97
2022-10-10T16:24:00.623Z,100945.72
2022-10-10T16:26:33.485Z,100945.16
2022-10-10T16:29:01.494Z,100945.91
2022-10-10T16:31:28.635Z,100942.53
2022-10-10T16:33:57.435Z,100947.16
2022-10-10T16:36:30.398Z,100946.16
2022-10-10T16:38:57.990Z,100943.53
2022-10-10T16:41:46.972Z,100945.88
2022-10-10T16:44:14.100Z,100950.06
2022-10-10T16:46:41.949Z,100948.81
2022-10-10T16:49:11.614Z,100943.19
2022-10-10T16:51:38.275Z,100953.19
2022-10-10T16:54:05.925Z,100950.22
2022-10-10T16:56:33.028Z,100950.94
2022-10-10T16:59:00.326Z,100941.16
2022-10-10T17:01:27.433Z,100957.94
2022-10-10T17:03:54.464Z,100963.75
2022-10-10T17:06:23.300Z,100963.09
2022-10-10T17:08:52.006Z,100960.09
2022-10-10T17:11:20.573Z,100966.38
2022-10-10T17:13:48.627Z,100957.28
2022-10-10T17:19:07.916Z,100977.22
2022-10-10T17:21:34.416Z,100973.13
2022-10-10T17:24:00.893Z,100960.69
2022-10-10T17:26:28.024Z,100962.66
2022-10-10T17:28:56.719Z,100952.31
2022-10-10T17:31:23.954Z,100956.78
2022-10-10T17:33:53.967Z,100955.91
2022-10-10T17:36:23.759Z,100948.09
2022-10-10T17:38:50.987Z,100945.06
2022-10-10T17:41:19.390Z,100945.81
2022-10-10T17:43:46.299Z,100954.66
2022-10-10T17:46:40.625Z,100951.09
2022-10-10T17:49:09.742Z,100951.97
2022-10-10T17:51:37.342Z,100953.56
2022-10-10T17:54:05.895Z,100948.00
2022-10-10T17:56:33.019Z,100953.72
2022-10-10T17:59:01.446Z,100956.72
2022-10-10T18:01:30.515Z,100946.31
2022-10-10T18:03:57.404Z,100949.19
2022-10-10T18:06:24.627Z,100946.97
2022-10-10T18:08:52.447Z,100952.25
2022-10-10T18:11:30.007Z,100945.97
2022-10-10T18:14:00.511Z,100945.41
2022-10-10T18:16:30.230Z,100943.72
2022-10-10T18:18:58.277Z,100948.69
2022-10-10T18:21:24.838Z,100951.50
2022-10-10T18:23:52.125Z,100951.22
2022-10-10T18:26:23.760Z,100945.09
2022-10-10T18:28:52.529Z,100941.22
2022-10-10T18:31:21.908Z,100937.06
2022-10-10T18:33:49.273Z,100944.72
2022-10-10T18:36:22.583Z,100937.66
2022-10-10T18:38:49.311Z,100946.56
2022-10-10T18:41:18.503Z,100949.38
2022-10-10T18:43:47.000Z,100936.78
2022-10-10T18:46:16.009Z,100944.34
2022-10-10T18:48:42.943Z,100943.50
2022-10-10T18:51:16.010Z,100940.03
2022-10-10T18:53:45.104Z,100940.19
2022-10-10T18:56:14.159Z,100945.50
2022-10-10T18:58:41.326Z,100949.78
2022-10-10T19:01:12.463Z,100961.59
2022-10-10T19:03:40.267Z,100956.72
2022-10-10T19:06:10.011Z,100955.84
2022-10-10T19:08:36.581Z,100953.34
2022-10-10T19:11:05.340Z,100954.34
2022-10-10T19:13:33.083Z,100960.50
2022-10-10T19:16:07.228Z,100961.63
2022-10-10T19:18:35.022Z,100955.53
2022-10-10T19:21:04.747Z,100956.38
2022-10-10T19:23:32.166Z,100956.25
2022-10-10T19:26:06.736Z,100954.78
2022-10-10T19:28:33.494Z,100952.09
2022-10-10T19:31:12.642Z,100956.19
2022-10-10T19:33:40.471Z,100953.34
2022-10-10T19:36:12.588Z,100949.91
2022-10-10T19:38:41.683Z,100958.06
2022-10-10T19:41:12.916Z,100945.97
2022-10-10T19:43:40.775Z,100946.50
2022-10-10T19:46:09.742Z,100947.38
2022-10-10T19:48:37.072Z,100954.59
2022-10-10T19:51:12.011Z,100962.81
2022-10-10T19:53:39.823Z,100956.34
2022-10-10T19:56:28.080Z,100957.81
2022-10-10T19:58:57.498Z,100953.78
2022-10-10T20:01:29.346Z,100960.56
2022-10-10T20:03:57.778Z,100956.56
2022-10-10T20:06:24.476Z,100965.00
2022-10-10T20:08:50.999Z,100947.72
2022-10-10T20:11:21.185Z,100948.13
2022-10-10T20:13:51.773Z,100954.22
2022-10-10T20:16:18.474Z,100947.53
2022-10-10T20:18:45.046Z,100947.78
2022-10-10T20:21:18.763Z,100946.53
2022-10-10T20:23:46.812Z,100948.25
2022-10-10T20:26:16.730Z,100951.44
2022-10-10T20:28:44.325Z,100947.28
2022-10-10T20:31:25.230Z,100951.25
2022-10-10T20:33:54.148Z,100943.28
2022-10-10T20:36:21.679Z,100949.69
2022-10-10T20:38:53.579Z,100949.34
2022-10-10T20:41:21.130Z,100949.47
2022-10-10T20:43:47.710Z,100950.44
2022-10-10T20:46:15.168Z,100951.44
2022-10-10T20:48:42.111Z,100956.44
2022-10-10T20:51:11.207Z,100962.22
2022-10-10T20:53:39.418Z,100952.16
2022-10-10T20:56:07.686Z,100956.44
2022-10-10T20:58:36.122Z,100949.59
2022-10-10T21:01:17.101Z,100946.91
2022-10-10T21:03:45.056Z,100945.94
2022-10-10T21:06:14.358Z,100948.84
2022-10-10T21:08:42.110Z,100948.97
2022-10-10T21:11:12.616Z,100947.03
2022-10-10T21:13:41.786Z,100944.56
2022-10-10T21:16:11.095Z,100948.38
2022-10-10T21:18:38.245Z,100952.66
2022-10-10T21:21:06.166Z,100941.41
2022-10-10T21:23:36.643Z,100948.66
2022-10-10T21:26:08.440Z,100947.06
2022-10-10T21:28:35.973Z,100943.66
2022-10-10T21:31:02.897Z,100943.50
2022-10-10T21:33:29.816Z,100939.47
2022-10-10T21:35:57.280Z,100943.00
2022-10-10T21:38:24.794Z,100941.06
2022-10-10T21:40:52.069Z,100946.69
2022-10-10T21:43:19.264Z,100945.84
2022-10-10T21:45:45.775Z,100942.28
2022-10-10T21:48:12.784Z,100950.38
2022-10-10T21:50:39.950Z,100945.09
2022-10-10T21:53:07.762Z,100950.63
2022-10-10T21:55:38.298Z,100954.28
2022-10-10T21:58:05.031Z,100945.38
2022-10-10T22:00:31.604Z,100949.78
2022-10-10T22:02:58.124Z,100936.53
2022-10-10T22:05:24.641Z,100946.22
2022-10-10T22:07:51.155Z,100952.34
2022-10-10T22:10:19.318Z,100946.09
2022-10-10T22:12:46.721Z,100951.59
2022-10-10T22:15:13.998Z,100943.66
2022-10-10T22:17:40.782Z,100949.50
2022-10-10T22:20:08.443Z,100942.19
2022-10-10T22:22:39.862Z,100941.19
2022-10-10T22:25:11.926Z,100936.66
2022-10-10T22:27:39.018Z,100942.88
2022-10-10T22:30:07.545Z,100934.81
2022-10-10T22:32:34.241Z,100929.69
2022-10-10T22:35:00.934Z,100940.09
2022-10-10T22:37:27.479Z,100933.72
2022-10-10T22:39:54.039Z,100926.63
2022-10-10T22:42:20.755Z,100921.94
2022-10-10T22:44:47.292Z,100926.22
2022-10-10T22:47:13.872Z,100922.53
2022-10-10T22:49:40.388Z,100927.09
2022-10-10T22:52:08.857Z,100928.28
2022-10-10T22:54:36.091Z,100930.38
2022-10-10T22:57:02.850Z,100923.19
2022-10-10T22:59:29.359Z,100928.19
2022-10-10T23:01:55.927Z,100921.78
2022-10-10T23:04:22.972Z,100927.19
2022-10-10T23:06:50.004Z,100922.66
2022-10-10T23:09:17.301Z,100921.41
2022-10-10T23:11:43.791Z,100926.56
2022-10-10T23:14:10.299Z,100928.25
2022-10-10T23:16:40.536Z,100927.16
2022-10-10T23:19:07.609Z,100927.03
2022-10-10T23:21:34.123Z,100926.44
2022-10-10T23:24:00.614Z,100915.91
2022-10-10T23:26:27.168Z,100914.06
2022-10-10T23:28:53.811Z,100916.63
2022-10-10T23:31:20.435Z,100915.50
2022-10-10T23:33:46.993Z,100917.47
2022-10-10T23:36:15.006Z,100922.47
2022-10-10T23:38:42.439Z,100926.63
2022-10-10T23:41:10.328Z,100914.03
2022-10-10T23:43:37.104Z,100911.59
2022-10-10T23:46:04.546Z,100916.72
2022-10-10T23:48:31.270Z,100920.38
2022-10-10T23:50:57.870Z,100920.53
2022-10-10T23:53:24.342Z,100921.25
2022-10-10T23:55:50.838Z,100915.00
2022-10-10T23:58:17.435Z,100926.75
